createdAt,value
2023-05-02T00:00:01.434Z,11.36
2023-05-02T00:05:00.691Z,11.30
2023-05-02T00:10:00.855Z,11.21
2023-05-02T00:15:00.767Z,11.09
2023-05-02T00:20:00.934Z,10.99
2023-05-02T00:25:00.657Z,10.93
2023-05-02T00:30:01.295Z,10.90
2023-05-02T00:35:00.543Z,10.95
2023-05-02T00:40:01.381Z,10.98
2023-05-02T00:45:01.182Z,11.02
2023-05-02T00:50:00.799Z,11.01
2023-05-02T00:55:00.859Z,11.00
2023-05-02T01:00:01.549Z,10.97
2023-05-02T01:05:15.109Z,11.07
2023-05-02T01:10:16.926Z,11.15
2023-05-02T01:15:06.601Z,11.15
2023-05-02T01:20:05.849Z,11.10
2023-05-02T01:25:13.798Z,11.13
2023-05-02T01:30:01.698Z,11.07
2023-05-02T01:35:01.804Z,11.08
2023-05-02T01:40:03.378Z,11.09
2023-05-02T01:45:03.357Z,11.11
2023-05-02T01:50:02.696Z,11.13
2023-05-02T01:55:01.367Z,11.13
2023-05-02T02:00:03.891Z,11.12
2023-05-02T02:05:03.606Z,11.13
2023-05-02T02:10:00.925Z,11.13
2023-05-02T02:15:05.757Z,11.15
2023-05-02T02:20:04.182Z,11.14
2023-05-02T02:25:00.906Z,11.06
2023-05-02T02:30:00.859Z,10.89
2023-05-02T02:35:01.610Z,10.77
2023-05-02T02:40:16.109Z,10.75
2023-05-02T02:45:15.324Z,10.72
2023-05-02T02:50:10.188Z,10.68
2023-05-02T02:55:11.914Z,10.69
2023-05-02T03:00:07.628Z,10.65
2023-05-02T03:05:02.154Z,10.60
2023-05-02T03:10:03.190Z,10.50
2023-05-02T03:15:10.020Z,10.42
2023-05-02T03:20:00.787Z,10.30
2023-05-02T03:25:00.545Z,10.24
2023-05-02T03:30:01.062Z,10.27
2023-05-02T03:35:00.495Z,10.25
2023-05-02T03:40:00.729Z,10.16
2023-05-02T03:45:00.496Z,10.08
2023-05-02T03:50:01.182Z,10.05
2023-05-02T03:55:00.896Z,9.92
2023-05-02T04:00:01.225Z,9.91
2023-05-02T04:05:00.501Z,9.89
2023-05-02T04:10:00.896Z,9.88
2023-05-02T04:15:00.484Z,9.88
2023-05-02T04:20:04.905Z,9.87
2023-05-02T04:25:00.504Z,9.80
2023-05-02T04:30:00.798Z,9.80
2023-05-02T04:35:00.484Z,9.77
2023-05-02T04:40:00.861Z,9.77
2023-05-02T04:45:00.534Z,9.70
2023-05-02T04:50:00.924Z,9.72
2023-05-02T04:55:00.483Z,9.73
2023-05-02T05:00:01.239Z,9.66
2023-05-02T05:05:00.879Z,9.54
2023-05-02T05:10:00.944Z,9.54
2023-05-02T05:15:00.470Z,9.58
2023-05-02T05:20:01.097Z,9.71
2023-05-02T05:25:00.565Z,9.81
2023-05-02T05:30:01.253Z,9.87
2023-05-02T05:35:00.910Z,9.90
2023-05-02T05:40:00.840Z,9.93
2023-05-02T05:45:00.696Z,10.03
2023-05-02T05:50:01.151Z,10.18
2023-05-02T05:55:00.528Z,10.20
2023-05-02T06:00:01.050Z,10.24
2023-05-02T06:05:00.570Z,10.33
2023-05-02T06:10:01.009Z,10.50
2023-05-02T06:15:00.489Z,10.56
2023-05-02T06:20:00.849Z,10.59
2023-05-02T06:25:00.808Z,10.74
2023-05-02T06:30:00.893Z,10.69
2023-05-02T06:35:00.523Z,10.58
2023-05-02T06:40:01.426Z,10.47
2023-05-02T06:45:00.502Z,10.55
2023-05-02T06:50:00.909Z,10.61
2023-05-02T06:55:00.475Z,10.73
2023-05-02T07:00:01.133Z,10.93
2023-05-02T07:05:00.541Z,11.23
2023-05-02T07:10:00.966Z,11.55
2023-05-02T07:15:00.540Z,11.59
2023-05-02T07:20:00.770Z,11.63
2023-05-02T07:25:01.611Z,11.89
2023-05-02T07:30:00.841Z,12.75
2023-05-02T07:35:00.481Z,13.27
2023-05-02T07:40:01.261Z,12.78
2023-05-02T07:45:00.918Z,12.36
2023-05-02T07:50:01.419Z,12.10
2023-05-02T07:55:00.513Z,11.89
2023-05-02T08:00:01.415Z,11.60
2023-05-02T08:05:00.511Z,11.46
2023-05-02T08:10:00.835Z,11.48
2023-05-02T08:15:04.089Z,11.51
2023-05-02T08:20:00.772Z,11.65
2023-05-02T08:25:00.525Z,11.96
2023-05-02T08:30:01.207Z,12.35
2023-05-02T08:35:00.487Z,12.60
2023-05-02T08:40:00.721Z,12.76
2023-05-02T08:45:01.089Z,12.87
2023-05-02T08:50:01.012Z,12.97
2023-05-02T08:55:02.482Z,12.98
2023-05-02T09:00:01.033Z,13.08
2023-05-02T09:05:06.074Z,13.78
2023-05-02T09:10:00.956Z,13.72
2023-05-02T09:15:08.060Z,13.50
2023-05-02T09:20:00.575Z,13.29
2023-05-02T09:25:00.873Z,13.29
2023-05-02T09:30:17.306Z,13.59
2023-05-02T09:35:04.534Z,13.81
2023-05-02T09:40:08.257Z,13.95
2023-05-02T09:45:00.923Z,14.11
2023-05-02T09:50:00.528Z,14.02
2023-05-02T09:55:00.821Z,13.76
2023-05-02T10:00:00.928Z,13.77
2023-05-02T10:05:02.577Z,14.47
2023-05-02T10:10:01.396Z,15.84
2023-05-02T10:15:03.322Z,16.18
2023-05-02T10:20:03.570Z,16.00
2023-05-02T10:25:02.855Z,15.89
2023-05-02T10:30:00.576Z,15.88
2023-05-02T10:35:05.786Z,15.49
2023-05-02T10:40:01.202Z,15.55
2023-05-02T10:45:00.809Z,15.36
2023-05-02T10:50:02.370Z,15.40
2023-05-02T10:55:18.805Z,17.46
2023-05-02T11:00:19.877Z,17.64
2023-05-02T11:05:02.371Z,17.09
2023-05-02T11:10:17.971Z,16.44
2023-05-02T11:15:01.660Z,16.60
2023-05-02T11:20:00.489Z,17.91
2023-05-02T11:25:00.927Z,17.95
2023-05-02T11:30:02.068Z,18.66
2023-05-02T11:35:01.192Z,17.89
2023-05-02T11:40:11.066Z,17.20
2023-05-02T11:45:00.901Z,17.12
2023-05-02T11:50:03.827Z,16.75
2023-05-02T11:55:00.856Z,16.91
2023-05-02T12:00:01.184Z,16.79
2023-05-02T12:05:02.793Z,17.66
2023-05-02T12:10:00.504Z,17.74
2023-05-02T12:15:03.819Z,17.05
2023-05-02T12:20:02.928Z,16.94
2023-05-02T12:25:01.385Z,17.56
2023-05-02T12:30:00.818Z,17.86
2023-05-02T12:35:02.210Z,18.25
2023-05-02T12:40:01.104Z,18.25
2023-05-02T12:45:00.498Z,17.59
2023-05-02T12:50:00.628Z,17.76
2023-05-02T12:55:18.442Z,18.27
2023-05-02T13:00:02.886Z,18.42
2023-05-02T13:05:00.510Z,18.38
2023-05-02T13:10:01.044Z,18.39
2023-05-02T13:15:00.547Z,18.56
2023-05-02T13:20:02.411Z,18.64
2023-05-02T13:25:00.499Z,18.84
2023-05-02T13:30:00.956Z,18.83
2023-05-02T13:35:00.509Z,18.75
2023-05-02T13:40:00.871Z,18.72
2023-05-02T13:45:00.465Z,18.24
2023-05-02T13:50:00.827Z,17.96
2023-05-02T13:55:00.506Z,17.33
2023-05-02T14:00:01.366Z,17.44
2023-05-02T14:05:00.588Z,17.64
2023-05-02T14:10:01.047Z,17.88
2023-05-02T14:15:00.547Z,17.92
2023-05-02T14:20:00.874Z,17.87
2023-05-02T14:25:00.627Z,17.88
2023-05-02T14:30:01.081Z,17.77
2023-05-02T14:35:00.499Z,17.76
2023-05-02T14:40:00.731Z,17.75
2023-05-02T14:45:00.545Z,17.74
2023-05-02T14:50:02.438Z,16.95
2023-05-02T14:55:01.300Z,16.89
2023-05-02T15:00:03.234Z,17.15
2023-05-02T15:05:00.918Z,17.22
2023-05-02T15:10:00.831Z,17.14
2023-05-02T15:15:00.478Z,17.19
2023-05-02T15:20:00.673Z,17.15
2023-05-02T15:25:01.236Z,17.05
2023-05-02T15:30:00.801Z,17.08
2023-05-02T15:35:00.472Z,16.99
2023-05-02T15:40:00.915Z,16.94
2023-05-02T15:45:00.520Z,16.70
2023-05-02T15:50:00.864Z,16.49
2023-05-02T15:55:00.574Z,16.31
2023-05-02T16:00:01.148Z,16.19
2023-05-02T16:05:00.490Z,16.15
2023-05-02T16:10:01.093Z,16.05
2023-05-02T16:15:01.897Z,15.93
2023-05-02T16:20:00.790Z,15.78
2023-05-02T16:25:00.516Z,15.65
2023-05-02T16:30:00.695Z,15.47
2023-05-02T16:35:00.470Z,15.26
2023-05-02T16:40:01.214Z,15.20
2023-05-02T16:45:00.735Z,14.90
2023-05-02T16:50:00.877Z,14.82
2023-05-02T16:55:00.559Z,14.62
2023-05-02T17:00:02.529Z,14.57
2023-05-02T17:05:00.486Z,14.56
2023-05-02T17:10:00.720Z,14.48
2023-05-02T17:15:02.178Z,14.36
2023-05-02T17:20:00.875Z,14.35
2023-05-02T17:25:00.697Z,14.15
2023-05-02T17:30:01.017Z,14.03
2023-05-02T17:35:00.481Z,13.78
2023-05-02T17:40:00.763Z,13.48
2023-05-02T17:45:00.536Z,13.22
2023-05-02T17:50:00.940Z,13.07
2023-05-02T17:55:00.800Z,12.83
2023-05-02T18:00:01.522Z,12.55
2023-05-02T18:05:00.745Z,12.29
2023-05-02T18:10:00.763Z,12.02
2023-05-02T18:15:01.133Z,11.81
2023-05-02T18:20:00.988Z,11.65
2023-05-02T18:25:00.764Z,11.50
2023-05-02T18:30:00.459Z,11.36
2023-05-02T18:35:01.023Z,11.24
2023-05-02T18:40:00.522Z,11.06
2023-05-02T18:45:01.266Z,10.92
2023-05-02T18:50:00.469Z,10.82
2023-05-02T18:55:01.214Z,10.68
2023-05-02T19:00:01.183Z,10.53
2023-05-02T19:05:03.839Z,10.41
2023-05-02T19:10:00.539Z,10.30
2023-05-02T19:15:00.946Z,10.19
2023-05-02T19:20:00.516Z,10.13
2023-05-02T19:25:00.762Z,10.01
2023-05-02T19:30:00.515Z,9.88
2023-05-02T19:35:01.374Z,9.78
2023-05-02T19:40:00.522Z,9.70
2023-05-02T19:45:00.684Z,9.61
2023-05-02T19:50:00.504Z,9.54
2023-05-02T19:55:00.832Z,9.45
2023-05-02T20:00:01.262Z,9.37
2023-05-02T20:05:00.521Z,9.36
2023-05-02T20:10:00.827Z,9.35
2023-05-02T20:15:00.574Z,9.27
2023-05-02T20:20:00.693Z,9.19
2023-05-02T20:25:00.636Z,9.16
2023-05-02T20:30:00.684Z,9.10
2023-05-02T20:35:00.792Z,9.06
2023-05-02T20:40:00.848Z,9.01
2023-05-02T20:45:01.345Z,8.93
2023-05-02T20:50:00.614Z,8.88
2023-05-02T20:55:00.536Z,8.86
2023-05-02T21:00:01.479Z,8.82
2023-05-02T21:05:00.479Z,8.76
2023-05-02T21:10:01.153Z,8.71
2023-05-02T21:15:00.484Z,8.61
2023-05-02T21:20:00.753Z,8.52
2023-05-02T21:25:00.568Z,8.46
2023-05-02T21:30:01.031Z,8.40
2023-05-02T21:35:01.215Z,8.33
2023-05-02T21:40:00.888Z,8.31
2023-05-02T21:45:00.776Z,8.29
2023-05-02T21:50:00.962Z,8.23
2023-05-02T21:55:00.526Z,8.16
2023-05-02T22:00:01.371Z,8.08
2023-05-02T22:05:00.528Z,8.04
2023-05-02T22:10:00.812Z,7.94
2023-05-02T22:15:00.518Z,7.91
2023-05-02T22:20:01.186Z,7.88
2023-05-02T22:25:00.558Z,7.86
2023-05-02T22:30:01.069Z,7.81
2023-05-02T22:35:00.667Z,7.77
2023-05-02T22:40:00.669Z,7.73
2023-05-02T22:45:00.579Z,7.67
2023-05-02T22:50:00.849Z,7.68
2023-05-02T22:55:00.482Z,7.69
2023-05-02T23:00:01.437Z,7.70
2023-05-02T23:05:01.219Z,7.62
2023-05-02T23:10:00.857Z,7.54
2023-05-02T23:15:00.471Z,7.51
2023-05-02T23:20:00.805Z,7.44
2023-05-02T23:25:00.518Z,7.39
2023-05-02T23:30:00.959Z,7.28
2023-05-02T23:35:00.657Z,7.19
2023-05-02T23:40:00.759Z,7.19
2023-05-02T23:45:00.860Z,7.22
2023-05-02T23:50:00.953Z,7.19
2023-05-02T23:55:00.512Z,7.12
